Anvil, Mississippi
Current Conditions -  °F | °C
As of 1:15 PM on Sunday 21 Dec 2014 (Local Time) from KCRX Reporting Station
Clear Clear  
Wind Chill: 13°   Ceiling: Unl
Heat Index: 13°   Visibility: 10mi
Dew Point:   Wind: 6mph
Humidity: 44%   Direction: 170°S
Pressure: 30.07"   Gusts: NA
Location:  34.9009°N, 88.9211°W
Report Text: KCRX 211915Z AUTO 17005KT 10SM CLR 13/01 A3007 RMK AO2
Loading
Personal Weather Stations






























Interactive Weather Map New forecast layout! Learn more

10-Day Weather Forecast

Advertisements
Track Severe Weather on mobile